Mason Valley, Nevada Weather observations

Data are for observation ending at time listed.
 Day   Time    Ave.   Ave.  Ave.  Vector   Max.   Stn.    Total    Solar   Ave.  
  of    of     Air    Rel.  Wind   Wind    Wind   Baro.  Precip.   Rad.    Soil  
Year   Day     Temp.  Hum.  Speed  Dir.    Gust   Pres.                    Temp. 
2014   (PST)    F      %     mph   deg.    mph     mb.     in.     W/m2     F   
------------------------------------------------------------------------------
 263   18:30   76.0    30    3.8   132      7.0   866.8    0.00       0    83.3
 263   18:40   76.1    30    3.8   127      7.4   866.9    0.00       0    83.2
 263   18:50   75.4    31    3.7   100      6.3   867.1    0.00       0    83.1
 263   19:00   76.0    30    8.0    85     14.1   867.2    0.00       0    82.9
 263   19:10   75.7    30    5.3   115      8.4   867.2    0.00       0    82.7
 263   19:20   74.7    32    3.4   233      5.6   867.1    0.00       0    82.6
 263   19:30   74.5    31    1.1   315      5.0   867.3    0.00       0    82.7
 263   19:40   73.1    32    3.8   352      5.9   867.6    0.00       0    82.7
 263   19:50   72.5    32    5.1    36      6.7   867.8    0.00       0    82.6
 263   20:00   73.0    31    4.3    53      7.5   867.9    0.00       0    82.5
 263   20:10   73.6    29    4.3    82      7.9   868.0    0.00       0    82.4
 263   20:20   73.6    29    6.2   121     11.3   868.2    0.00       0    82.2
 263   20:30   73.1    30    3.6   126      6.7   868.2    0.00       0    82.0
 263   20:40   72.8    30    4.1   114      7.6   868.2    0.00       0    82.0
 263   20:50   71.5    33    4.6   103      7.6   868.3    0.00       0    81.9
 263   21:00   71.5    32    4.7   125      7.8   868.4    0.00       0    81.8
 263   21:10   71.3    33    4.6   128      6.5   868.5    0.00       0    81.8
 263   21:20   69.6    35    6.0   102     11.7   868.8    0.00       0    81.8
 263   21:30   71.1    33   10.7   110     17.0   869.1    0.00       0    81.6
 263   21:40   72.0    31   10.4   125     17.7   869.3    0.00       0    81.4
 263   21:50   71.5    32    8.5   124     14.9   869.5    0.00       0    81.1
 263   22:00   70.4    34    5.7   139      8.2   869.5    0.00       0    81.1
 263   22:10   69.8    36    4.4   134      8.1   869.5    0.00       0    81.1
 263   22:20   69.6    37    4.6    95      8.5   869.7    0.00       0    81.1
 263   22:30   69.1    39    9.4    62     17.1   869.8    0.00       0    81.1
 263   22:40   68.7    41    8.2    85     12.0   869.9    0.00       0    80.9
 263   22:50   68.3    42    9.0    87     14.8   869.8    0.00       0    80.8
 263   23:00   67.8    43    7.6    93     12.5   869.8    0.00       0    80.6
 263   23:10   67.4    44    5.3   114      8.5   869.8    0.00       0    80.6
 263   23:20   67.4    44    4.7   105      9.2   869.8    0.00       0    80.6
 263   23:30   67.0    44    4.7    80      7.6   869.8    0.00       0    80.5
 263   23:40   66.8    44    3.2    82      6.2   869.7    0.00       0    80.3
 263   23:50   66.5    44    3.6   157      5.8   869.6    0.00       0    80.2
 264    0:00   66.1    44    5.0   154      7.5   869.6    0.00       0    80.1
 264    0:10   66.2    44    6.3   160      9.0   869.5    0.00       0    80.0
 264    0:20   66.1    45    4.8   185      7.8   869.4    0.00       0    79.9
 264    0:30   66.3    45    6.3   181      8.8   869.5    0.00       0    79.7
 264    0:40   66.7    44    6.3   174      8.5   869.6    0.00       0    79.5
 264    0:50   66.7    44    7.0   184     10.1   869.6    0.00       0    79.3
 264    1:00   66.2    46    8.8   186     12.2   869.4    0.00       0    79.2
 264    1:10   65.8    46    7.9   203     11.7   869.4    0.00       0    79.1
 264    1:20   65.8    46    7.2   196      9.6   869.3    0.00       0    79.0
 264    1:30   65.2    48    6.5   190      9.0   869.1    0.00       0    78.9
 264    1:40   65.5    47    7.0   212     11.0   868.9    0.00       0    78.9
 264    1:50   65.6    47    6.5   188     10.2   868.7    0.00       0    78.7
 264    2:00   65.1    51    6.5   171     10.5   868.7    0.00       0    78.6
 264    2:10   63.5    56    4.2   136      6.7   868.7    0.00       0    78.6
 264    2:20   62.5    58    3.1    75      4.3   868.8    0.00       0    78.6
 264    2:30   61.6    61    4.9    79      7.0   868.8    0.00       0    78.7
 264    2:40   61.1    63    2.4   120      4.3   868.8    0.00       0    78.7
 264    2:50   60.7    63    0.5   147      2.0   868.8    0.00       0    78.7
 264    3:00   60.6    63    1.3    38      3.4   868.8    0.00       0    78.5
 264    3:10   60.4    63    1.0    30      2.0   868.9    0.00       0    78.5
 264    3:20   60.5    62    0.0     0      0.0   868.9    0.00       0    78.3
 264    3:30   60.7    63    0.0     0      0.0   869.0    0.00       0    78.2
 264    3:40   60.5    63    0.0     0      0.0   869.0    0.00       0    78.0
 264    3:50   60.0    62    1.5   241      3.7   869.0    0.00       0    77.8
 264    4:00   59.4    63    1.0   302      1.9   868.9    0.00       0    77.8
 264    4:10   60.0    64    1.4   300      3.8   869.0    0.00       0    77.7
 264    4:20   59.8    62    2.2   342      4.9   869.0    0.00       0    77.6
 264    4:30   59.5    64    0.9   324      2.7   869.0    0.00       0    77.5
 264    4:40   59.8    63    1.7   297      3.4   869.1    0.00       0    77.3
 264    4:50   58.9    62    1.6    42      5.0   869.1    0.00       0    77.2
 264    5:00   56.9    66    0.4    41      2.5   869.2    0.00       0    77.2
 264    5:10   56.9    69    0.0     0      0.0   869.2    0.00       0    77.3
 264    5:20   56.6    68    0.9   272      3.6   869.3    0.00       0    77.3
 264    5:30   57.0    67    1.1   267      3.5   869.4    0.00       0    77.2
 264    5:40   56.6    66    1.3   251      4.2   869.4    0.00       2    77.0
 264    5:50   54.9    67    3.3   245      4.2   869.4    0.00       9    77.0
 264    6:00   57.3    66    2.8   255      4.3   869.5    0.00      24    76.8
 264    6:10   58.8    61    2.5   263      4.3   869.5    0.00      39    76.4
 264    6:20   60.4    58    2.1   296      3.5   869.6    0.00      80    76.0
 264    6:30   61.4    56    2.8   344      4.8   869.6    0.00     120    75.7
 264    6:40   62.7    55    3.0   329      4.1   869.7    0.00     153    75.2
 264    6:50   62.3    56    3.4   343      4.9   869.8    0.00      97    74.9
 264    7:00   63.9    54    1.1   162      3.8   869.8    0.00     191    74.8
 264    7:10   67.8    47    1.8   169      3.6   869.9    0.00     275    74.7
 264    7:20   69.0    45    0.8   151      3.0   870.0    0.00     318    74.3
 264    7:30   70.2    44    0.3   284      2.9   870.0    0.00     337    74.0
 264    7:40   69.3    45    1.4   279      4.8   870.0    0.00     354    73.7
 264    7:50   67.7    49    3.1   356      7.4   870.0    0.00     382    73.7
 264    8:00   68.6    48    3.0    16      7.5   870.0    0.00     411    73.8
 264    8:10   68.4    49    2.5    25      5.7   869.9    0.00     441    73.9
 264    8:20   70.2    44    1.8   122      4.0   870.0    0.00     470    74.0
 264    8:30   72.1    41    1.5   161      4.0   870.0    0.00     500    73.9
 264    8:40   75.3    36    1.0   252      3.3   870.0    0.00     529    73.8
 264    8:50   73.5    38    2.3   330      5.1   870.0    0.00     558    73.8
 264    9:00   72.2    41    2.1     6      4.0   870.0    0.00     588    74.0
 264    9:10   73.5    39    2.1    46      6.4   869.9    0.00     617    74.2
 264    9:20   74.5    37    3.9   157      8.7   869.9    0.00     641    74.4
 264    9:30   75.0    35    3.7   170      7.6   869.8    0.00     663    74.6
 264    9:40   75.2    33    3.9   164      8.4   869.7    0.00     682    74.8
 264    9:50   75.6    32    4.2   172      8.8   869.7    0.00     696    74.9
 264   10:00   76.4    32    3.3   202      7.4   869.6    0.00     715    75.0
 264   10:10   75.9    33    4.7   124     16.1   869.6    0.00     742    75.2
 264   10:20   74.3    34    3.4    27      7.6   869.5    0.00     756    75.3
 264   10:30   76.5    31    3.3   164      6.4   869.5    0.00     773    75.5
 264   10:40   76.2    33    4.0   111      9.2   869.3    0.00     790    75.5
 264   10:50   75.8    32    5.3    45      9.0   869.2    0.00     804    75.7
 264   11:00   75.7    32    3.5    17      7.4   869.1    0.00     815    75.9
 264   11:10   76.6    31    4.7    92     10.5   869.0    0.00     826    76.2
 264   11:20   77.1    31    5.3    72     10.7   868.9    0.00     822    76.3
 264   11:30   76.8    30    7.5    37     12.2   868.8    0.00     842    76.5
 264   11:40   77.0    30    8.0    45     17.7   868.6    0.00     854    76.7
 264   11:50   77.5    29    7.3    34     16.1   868.5    0.00     892    76.9
 264   12:00   77.4    29    5.1    16     12.0   868.5    0.00     567    77.1
 264   12:10   77.0    30    8.4     2     12.9   868.4    0.00     569    77.6
 264   12:20   77.2    30    7.2   358     14.3   868.3    0.00     641    77.9
 264   12:30   77.4    29    5.6    35     12.0   868.1    0.00     618    78.1
 264   12:40   78.5    28    5.3   318     13.0   868.0    0.00     678    78.3
 264   12:50   78.5    28    7.6    12     11.9   867.9    0.00     624    78.4
 264   13:00   77.5    30    7.2    21     12.6   867.9    0.00     342    78.6
 264   13:10   77.5    29    7.7   351     12.8   867.9    0.00     349    79.0
 264   13:20   77.5    29    6.7   352     11.4   867.8    0.00     296    79.4
 264   13:30   78.3    26    5.0   276      9.7   867.8    0.00     223    79.6
 264   13:40   77.7    24    9.1   246     14.4   867.8    0.00     157    79.8
 264   13:50   76.6    27   10.6   255     18.9   867.9    0.00     136    80.0
 264   14:00   75.8    28   10.9   262     19.4   868.0    0.00     132    80.4
 264   14:10   75.0    29   11.6   259     19.8   868.1    0.00     130    80.6
 264   14:20   74.4    31   13.1   257     19.8   868.2    0.00      94    80.8
 264   14:30   73.2    32   13.1   260     22.2   868.3    0.00      74    81.0
 264   14:40   73.0    32   12.3   258     21.2   868.2    0.00      90    81.1
 264   14:50   73.1    31   11.4   246     21.9   868.3    0.00     132    81.2
 264   15:00   73.0    32   11.1   254     16.8   868.2    0.00     191    81.1
 264   15:10   73.9    31   11.2   246     19.2   868.0    0.00     317    81.1
 264   15:20   73.9    32    8.4   252     14.3   868.0    0.00     322    80.9
 264   15:30   74.6    31   10.5   262     20.6   868.0    0.00     479    80.8
 264   15:40   74.5    31   11.3   267     19.6   868.1    0.00     307    80.8
 264   15:50   72.9    33   13.4   257     22.7   868.1    0.00     122    80.9
 264   16:00   72.8    33   11.6   264     17.4   868.2    0.00     105    81.2
 264   16:10   72.8    33   10.0   267     18.3   868.2    0.00     102    81.4
 264   16:20   73.0    31   10.4   269     18.3   868.3    0.00     104    81.5
 264   16:30   72.9    30   11.8   256     19.7   868.4    0.00      85    81.5
 264   16:40   72.7    30   12.3   264     19.7   868.4    0.00      62    81.4
 264   16:50   72.6    31   12.2   261     21.8   868.4    0.00      47    81.4
 264   17:00   72.6    31   13.6   259     19.6   868.4    0.00      42    81.4
 264   17:10   72.4    31   10.6   264     17.8   868.5    0.00      24    81.4
 264   17:20   72.3    31    8.1   271     14.6   868.5    0.00      20    81.4
 264   17:30   72.2    31    8.6   284     15.9   868.5    0.00      13    81.4
 264   17:40   72.2    31    6.9   270     12.2   868.6    0.00       7    81.3
 264   17:50   72.2    31    7.0   266     13.1   868.6    0.00       4    81.2
 264   18:00   72.1    31    6.2   265     10.3   868.7    0.00       1    81.2
 264   18:10   72.1    31    5.6   262     10.3   868.8    0.00       0    81.1
 264   18:20   72.1    31    6.3   268     10.4   868.8    0.00       0    81.0

Return to Mason Valley, Nevada graphs page.


Western Regional Climate Center,wrcc@dri.edu